Time;durP1;ratioP1;P1;durP2;ratioP2;P2;SDS_P1;SDS_P2;PMS_P1;PMS_P2;Temp;Humidity;BMP_temperature;BMP_pressure;BME280_temperature;BME280_humidity;BME280_pressure;Samples;Min_cycle;Max_cycle;Signal;HPM_P1;HPM_P2
2023/07/21 00:00:18;;;;;;;24.43;21.83;;;14.30;99.90;;;;;;4826422;29;20221;-91
2023/07/21 00:02:45;;;;;;;25.13;22.47;;;14.30;99.90;;;;;;4826160;29;20220;-92
2023/07/21 00:05:12;;;;;;;28.50;22.57;;;14.30;99.90;;;;;;4826397;29;20431;-91
2023/07/21 00:07:37;;;;;;;25.97;23.37;;;14.30;99.90;;;;;;4826406;29;20510;-92
2023/07/21 00:10:10;;;;;;;25.97;23.20;;;14.30;99.90;;;;;;4825985;29;20846;-92
2023/07/21 00:12:42;;;;;;;24.77;22.30;;;14.30;99.90;;;;;;4825289;29;20193;-91
2023/07/21 00:15:08;;;;;;;25.13;22.63;;;14.30;99.90;;;;;;4825969;29;20374;-91
2023/07/21 00:17:34;;;;;;;26.90;24.20;;;14.30;99.90;;;;;;4826666;29;20837;-91
2023/07/21 00:20:11;;;;;;;30.90;24.70;;;14.30;99.90;;;;;;4825994;29;20513;-91
2023/07/21 00:22:37;;;;;;;29.33;24.60;;;14.30;99.90;;;;;;4826131;29;20386;-91
2023/07/21 00:25:05;;;;;;;27.57;24.77;;;14.30;99.90;;;;;;4825645;29;20458;-91
2023/07/21 00:27:31;;;;;;;28.90;25.80;;;14.30;99.90;;;;;;4824535;29;20434;-92
2023/07/21 00:29:57;;;;;;;31.10;26.07;;;14.40;99.90;;;;;;4826225;29;20431;-91
2023/07/21 00:32:22;;;;;;;29.20;25.97;;;14.40;99.90;;;;;;4824477;29;20589;-91
2023/07/21 00:34:50;;;;;;;29.37;26.00;;;14.40;99.90;;;;;;4826025;29;20276;-91
2023/07/21 00:37:17;;;;;;;31.33;25.17;;;14.40;99.90;;;;;;4825484;29;20730;-92
2023/07/21 00:39:44;;;;;;;28.97;25.87;;;14.40;99.90;;;;;;4825859;29;20445;-91
2023/07/21 00:42:10;;;;;;;26.83;24.03;;;14.40;99.90;;;;;;4825520;29;20409;-91
2023/07/21 00:44:36;;;;;;;26.90;24.00;;;14.40;99.90;;;;;;4824415;29;20782;-92
2023/07/21 00:47:02;;;;;;;27.07;24.23;;;14.40;99.90;;;;;;4825600;29;20514;-92
2023/07/21 00:49:28;;;;;;;27.83;25.03;;;14.40;99.90;;;;;;4824721;29;20185;-91
2023/07/21 00:51:53;;;;;;;29.40;25.93;;;14.30;99.90;;;;;;4825745;29;20390;-92
2023/07/21 00:54:20;;;;;;;26.57;23.87;;;14.40;99.90;;;;;;4825619;29;20193;-92
2023/07/21 00:56:45;;;;;;;27.10;23.70;;;14.40;99.90;;;;;;4824786;29;20217;-91
2023/07/21 00:59:11;;;;;;;26.93;23.50;;;14.40;99.90;;;;;;4825111;29;20506;-92
2023/07/21 01:01:37;;;;;;;27.50;23.57;;;14.30;99.90;;;;;;4825666;29;20185;-92
2023/07/21 01:04:03;;;;;;;27.37;24.00;;;14.40;99.90;;;;;;4808915;29;20190;-92
2023/07/21 01:06:30;;;;;;;27.53;24.63;;;14.40;99.90;;;;;;4824463;29;20193;-91
2023/07/21 01:08:58;;;;;;;28.43;25.03;;;14.40;99.90;;;;;;4824020;29;20435;-93
2023/07/21 01:11:25;;;;;;;27.10;24.30;;;14.40;99.90;;;;;;4825393;29;20517;-92
2023/07/21 01:13:55;;;;;;;31.50;27.17;;;14.40;99.90;;;;;;4828211;29;20423;-92
2023/07/21 01:16:23;;;;;;;31.67;27.33;;;14.30;99.90;;;;;;4825254;29;20423;-91
2023/07/21 01:18:50;;;;;;;30.77;27.40;;;14.30;99.90;;;;;;4823497;29;21019;-92
2023/07/21 01:21:37;;;;;;;29.70;25.90;;;14.30;99.90;;;;;;4824936;29;20491;-91
2023/07/21 01:24:15;;;;;;;29.07;25.97;;;14.30;99.90;;;;;;4808671;29;20998;-92
2023/07/21 01:26:43;;;;;;;29.47;26.23;;;14.30;99.90;;;;;;4825265;29;20458;-92
2023/07/21 01:29:09;;;;;;;30.33;27.20;;;14.30;99.90;;;;;;4823818;29;20937;-92
2023/07/21 01:31:38;;;;;;;35.40;29.47;;;14.30;99.90;;;;;;4825071;29;20478;-92
2023/07/21 01:34:05;;;;;;;31.87;28.47;;;14.30;99.90;;;;;;4825107;29;20437;-92
2023/07/21 01:36:32;;;;;;;35.30;29.20;;;14.30;99.90;;;;;;4825198;29;20423;-92
2023/07/21 01:38:58;;;;;;;36.27;29.60;;;14.20;99.90;;;;;;4824610;29;20444;-92
2023/07/21 01:41:26;;;;;;;31.97;27.17;;;14.20;99.90;;;;;;4825275;29;20427;-92
2023/07/21 01:43:53;;;;;;;37.60;32.10;;;14.10;99.90;;;;;;4825421;29;20389;-92
2023/07/21 01:46:18;;;;;;;37.43;30.67;;;14.10;99.90;;;;;;4824956;29;20499;-92
2023/07/21 01:48:46;;;;;;;36.17;29.80;;;14.10;99.90;;;;;;4824844;29;20413;-92
2023/07/21 01:51:14;;;;;;;34.27;29.50;;;14.10;99.90;;;;;;4823142;29;20181;-92
2023/07/21 01:53:41;;;;;;;35.53;29.37;;;14.10;99.90;;;;;;4823723;29;20397;-92
2023/07/21 01:56:19;;;;;;;35.00;30.97;;;14.10;99.90;;;;;;4823610;29;20430;-92
2023/07/21 01:58:46;;;;;;;36.03;31.40;;;14.10;99.90;;;;;;4824857;29;20517;-92
2023/07/21 02:01:14;;;;;;;41.07;33.00;;;14.20;99.90;;;;;;4824797;29;20465;-92
2023/07/21 02:03:40;;;;;;;40.57;33.30;;;14.20;99.90;;;;;;4823713;29;20499;-92
2023/07/21 02:06:13;;;;;;;41.93;33.67;;;14.20;99.90;;;;;;4824801;29;20475;-92
2023/07/21 02:08:39;;;;;;;40.00;33.23;;;14.20;99.90;;;;;;4828183;29;20430;-92
2023/07/21 02:11:05;;;;;;;37.67;31.80;;;14.20;99.90;;;;;;4826480;29;20438;-91
2023/07/21 02:13:31;;;;;;;41.87;32.60;;;14.20;99.90;;;;;;4826736;29;20245;-92
2023/07/21 02:15:57;;;;;;;37.90;32.40;;;14.20;99.90;;;;;;4827983;29;20182;-92
2023/07/21 02:18:22;;;;;;;39.80;32.10;;;14.30;99.90;;;;;;4826229;29;20482;-91
2023/07/21 02:20:48;;;;;;;37.50;31.03;;;14.30;99.90;;;;;;4827194;29;20193;-92
2023/07/21 02:23:14;;;;;;;41.03;32.23;;;14.30;99.90;;;;;;4827654;29;20650;-92
2023/07/21 02:25:40;;;;;;;38.80;34.00;;;14.30;99.90;;;;;;4827849;29;20186;-92
2023/07/21 02:28:06;;;;;;;35.90;30.50;;;14.30;99.90;;;;;;4827768;29;20181;-92
2023/07/21 02:30:31;;;;;;;38.40;31.87;;;14.30;99.90;;;;;;4827818;29;20405;-92
2023/07/21 02:32:57;;;;;;;39.27;34.27;;;14.30;99.90;;;;;;4826350;29;20324;-92
2023/07/21 02:35:23;;;;;;;42.63;36.00;;;14.30;99.90;;;;;;4826314;29;20665;-92
2023/07/21 02:37:48;;;;;;;40.10;33.70;;;14.30;99.90;;;;;;4811575;29;20204;-92
2023/07/21 02:40:14;;;;;;;41.20;33.47;;;14.30;99.90;;;;;;4827617;29;20698;-92
2023/07/21 02:42:40;;;;;;;40.30;31.00;;;14.30;99.90;;;;;;4811518;29;20209;-92
2023/07/21 02:45:06;;;;;;;45.13;35.53;;;14.40;99.90;;;;;;4826219;29;20397;-92
2023/07/21 02:47:31;;;;;;;40.80;35.47;;;14.40;99.90;;;;;;4827678;29;20222;-92
2023/07/21 02:49:57;;;;;;;42.03;36.17;;;14.40;99.90;;;;;;4826588;29;20425;-91
2023/07/21 02:52:22;;;;;;;48.03;37.03;;;14.50;99.90;;;;;;4827121;29;20190;-92
2023/07/21 02:54:48;;;;;;;53.13;38.90;;;14.60;99.90;;;;;;4827516;29;20250;-92
2023/07/21 02:57:14;;;;;;;43.90;36.90;;;14.70;99.90;;;;;;4827036;29;20186;-92
2023/07/21 02:59:41;;;;;;;44.87;39.00;;;14.70;99.90;;;;;;4826371;29;20270;-92
2023/07/21 03:02:06;;;;;;;47.60;36.60;;;14.70;99.90;;;;;;4827377;29;20189;-93
2023/07/21 03:04:34;;;;;;;46.10;39.00;;;14.70;99.90;;;;;;4826371;29;20409;-92
2023/07/21 03:07:00;;;;;;;51.17;39.90;;;14.70;99.90;;;;;;4829261;29;20244;-92
2023/07/21 03:09:27;;;;;;;53.90;40.70;;;14.60;99.90;;;;;;4825965;29;20824;-92
2023/07/21 03:11:56;;;;;;;50.67;40.47;;;14.60;99.90;;;;;;4827039;29;20201;-92
2023/07/21 03:14:22;;;;;;;48.97;41.00;;;14.60;99.90;;;;;;4826790;29;20402;-92
2023/07/21 03:16:48;;;;;;;52.67;41.40;;;14.60;99.90;;;;;;4827258;29;20418;-92
2023/07/21 03:19:13;;;;;;;51.47;41.03;;;14.60;99.90;;;;;;4825041;29;20445;-92
2023/07/21 03:21:39;;;;;;;49.60;40.30;;;14.60;99.90;;;;;;4827378;29;20190;-93
2023/07/21 03:24:07;;;;;;;49.10;40.77;;;14.60;99.90;;;;;;4827131;29;20222;-92
2023/07/21 03:26:32;;;;;;;49.07;40.30;;;14.70;99.90;;;;;;4826998;29;20431;-92
2023/07/21 03:28:58;;;;;;;53.63;42.10;;;14.70;99.90;;;;;;4827248;29;20976;-92
2023/07/21 03:31:24;;;;;;;52.93;41.80;;;14.70;99.90;;;;;;4826667;29;20657;-92
2023/07/21 03:33:50;;;;;;;54.30;42.00;;;14.70;99.90;;;;;;4825768;29;20458;-92
2023/07/21 03:36:16;;;;;;;63.40;44.60;;;14.70;99.90;;;;;;4825474;29;20192;-93
2023/07/21 03:38:41;;;;;;;61.07;44.93;;;14.60;99.90;;;;;;4827091;29;20274;-93
2023/07/21 03:41:09;;;;;;;63.53;46.27;;;14.60;99.90;;;;;;4826788;29;20913;-92
2023/07/21 03:43:36;;;;;;;61.10;44.97;;;14.60;99.90;;;;;;4826461;29;20197;-92
2023/07/21 03:46:04;;;;;;;60.67;45.60;;;14.60;99.90;;;;;;4826657;29;20458;-93
2023/07/21 03:48:30;;;;;;;57.40;42.47;;;14.60;99.90;;;;;;4825333;29;20405;-93
2023/07/21 03:51:00;;;;;;;59.97;44.80;;;14.70;99.90;;;;;;4825574;29;20470;-92
2023/07/21 03:53:27;;;;;;;64.47;44.87;;;14.70;99.90;;;;;;4826230;29;20476;-93
2023/07/21 03:55:52;;;;;;;69.03;44.67;;;14.70;99.90;;;;;;4826283;29;20525;-92
2023/07/21 03:58:18;;;;;;;59.60;44.93;;;14.70;99.90;;;;;;4826277;29;20549;-92
2023/07/21 04:00:44;;;;;;;54.03;43.80;;;14.60;99.90;;;;;;4826454;29;20657;-92
2023/07/21 04:03:09;;;;;;;60.23;43.60;;;14.60;99.90;;;;;;4826519;29;20188;-92
2023/07/21 04:05:35;;;;;;;52.37;42.30;;;14.60;99.90;;;;;;4828891;29;20592;-92
2023/07/21 04:08:01;;;;;;;60.27;42.40;;;14.60;99.90;;;;;;4826639;29;20204;-92
2023/07/21 04:10:27;;;;;;;56.53;44.57;;;14.60;99.90;;;;;;4826327;29;20189;-92
2023/07/21 04:12:52;;;;;;;52.83;41.30;;;14.70;99.90;;;;;;4826601;29;20495;-92
2023/07/21 04:15:18;;;;;;;59.77;40.73;;;14.60;99.90;;;;;;4826214;29;20192;-92
2023/07/21 04:17:44;;;;;;;55.70;42.00;;;14.60;99.90;;;;;;4826218;29;20213;-92
2023/07/21 04:20:10;;;;;;;60.17;42.87;;;14.60;99.90;;;;;;4824866;29;20196;-92
2023/07/21 04:22:36;;;;;;;58.90;40.33;;;14.70;99.90;;;;;;4826129;29;20190;-93
2023/07/21 04:25:02;;;;;;;51.33;40.07;;;14.70;99.90;;;;;;4826070;29;20480;-92
2023/07/21 04:27:31;;;;;;;50.80;40.33;;;14.60;99.90;;;;;;4825914;29;20898;-92
2023/07/21 04:29:56;;;;;;;60.00;44.60;;;14.60;99.90;;;;;;4824525;29;20919;-92
2023/07/21 04:32:22;;;;;;;55.37;43.43;;;14.70;99.90;;;;;;4824606;29;20456;-92
2023/07/21 04:34:48;;;;;;;53.70;42.60;;;14.60;99.90;;;;;;4826245;29;20723;-92
2023/07/21 04:37:14;;;;;;;56.17;42.40;;;14.70;99.90;;;;;;4825656;29;20393;-92
2023/07/21 04:39:40;;;;;;;69.37;44.50;;;14.70;99.90;;;;;;4825819;29;20211;-92
2023/07/21 04:42:06;;;;;;;61.57;44.10;;;14.70;99.90;;;;;;4825944;29;20655;-92
2023/07/21 04:44:31;;;;;;;55.90;44.50;;;14.80;99.90;;;;;;4825889;29;20400;-92
2023/07/21 04:46:57;;;;;;;52.97;42.27;;;14.80;99.90;;;;;;4826309;29;20423;-92
2023/07/21 04:49:22;;;;;;;59.17;42.17;;;14.80;99.90;;;;;;4825501;29;20197;-92
2023/07/21 04:51:48;;;;;;;51.20;41.67;;;14.80;99.90;;;;;;4825644;29;20232;-92
2023/07/21 04:54:13;;;;;;;63.97;42.63;;;14.70;99.90;;;;;;4825623;29;20605;-92
2023/07/21 04:56:39;;;;;;;49.83;40.80;;;14.70;99.90;;;;;;4826369;29;20584;-92
2023/07/21 04:59:05;;;;;;;55.00;41.20;;;14.70;99.90;;;;;;4825846;29;20249;-92
2023/07/21 05:01:33;;;;;;;59.50;42.47;;;14.80;99.90;;;;;;4824272;29;20196;-92
2023/07/21 05:03:59;;;;;;;60.77;42.40;;;14.80;99.90;;;;;;4825708;29;20193;-92
2023/07/21 05:06:24;;;;;;;53.93;42.70;;;14.80;99.90;;;;;;4825627;29;20405;-92
2023/07/21 05:08:50;;;;;;;60.93;41.47;;;14.70;99.90;;;;;;4825663;29;20190;-92
2023/07/21 05:11:15;;;;;;;53.80;41.67;;;14.80;99.90;;;;;;4825642;29;20197;-92
2023/07/21 05:13:41;;;;;;;49.50;39.63;;;14.80;99.90;;;;;;4828180;29;20190;-92
2023/07/21 05:16:07;;;;;;;50.50;41.03;;;14.90;99.90;;;;;;4824209;29;20181;-92
2023/07/21 05:18:33;;;;;;;54.27;38.67;;;14.90;99.90;;;;;;4825345;29;20705;-92
2023/07/21 05:20:59;;;;;;;58.53;38.77;;;15.00;99.90;;;;;;4824441;29;20186;-92
2023/07/21 05:23:24;;;;;;;57.37;44.37;;;15.00;99.90;;;;;;4824937;29;20422;-92
2023/07/21 05:26:00;;;;;;;61.83;41.57;;;15.00;99.90;;;;;;4824491;29;20221;-92
2023/07/21 05:28:29;;;;;;;48.83;39.50;;;15.10;99.90;;;;;;4825340;29;20245;-92
2023/07/21 05:30:56;;;;;;;48.27;39.10;;;15.10;99.90;;;;;;4823779;29;20913;-92
2023/07/21 05:33:21;;;;;;;50.23;40.30;;;15.10;99.90;;;;;;4825156;29;20422;-92
2023/07/21 05:35:47;;;;;;;57.60;42.37;;;15.30;99.90;;;;;;4823871;29;20402;-92
2023/07/21 05:38:13;;;;;;;57.83;39.37;;;15.30;99.90;;;;;;4823527;29;20232;-91
2023/07/21 05:40:42;;;;;;;47.13;39.87;;;15.30;99.90;;;;;;4825130;29;20193;-92
2023/07/21 05:43:08;;;;;;;51.00;39.83;;;15.40;99.90;;;;;;4823286;29;20431;-92
2023/07/21 05:45:38;;;;;;;54.60;40.37;;;15.40;99.90;;;;;;4824625;29;20420;-92
2023/07/21 05:48:03;;;;;;;49.70;40.87;;;15.40;99.90;;;;;;4825097;29;20409;-92
2023/07/21 05:50:29;;;;;;;60.67;41.07;;;15.40;99.90;;;;;;4824662;29;20422;-91
2023/07/21 05:52:54;;;;;;;63.33;40.37;;;15.40;99.90;;;;;;4825192;29;20217;-92
2023/07/21 05:55:20;;;;;;;51.77;41.07;;;15.40;99.90;;;;;;4825161;29;20185;-93
2023/07/21 05:57:46;;;;;;;55.40;39.27;;;15.50;99.90;;;;;;4825313;29;20276;-92
2023/07/21 06:00:14;;;;;;;54.07;42.27;;;15.40;99.90;;;;;;4824838;29;20205;-92
2023/07/21 06:02:40;;;;;;;50.83;39.70;;;15.50;99.90;;;;;;4824834;29;20916;-92
2023/07/21 06:05:07;;;;;;;48.37;39.00;;;15.50;99.90;;;;;;4825046;29;20461;-92
2023/07/21 06:07:33;;;;;;;51.53;40.87;;;15.50;99.90;;;;;;4823277;29;20822;-92
2023/07/21 06:09:58;;;;;;;43.53;38.83;;;15.50;99.90;;;;;;4823741;29;20449;-92
2023/07/21 06:12:24;;;;;;;48.43;40.67;;;15.50;99.90;;;;;;4824440;29;20189;-92
2023/07/21 06:14:49;;;;;;;55.00;41.80;;;15.50;99.90;;;;;;4824580;29;20186;-92
2023/07/21 06:17:15;;;;;;;51.90;41.60;;;15.50;99.90;;;;;;4824480;29;20193;-92
2023/07/21 06:19:41;;;;;;;49.50;40.17;;;15.40;99.90;;;;;;4824411;29;20727;-91
2023/07/21 06:22:07;;;;;;;50.27;40.30;;;15.40;99.90;;;;;;4824631;29;20186;-92
2023/07/21 06:24:32;;;;;;;51.70;42.80;;;15.50;99.90;;;;;;4824532;29;20635;-92
2023/07/21 06:26:59;;;;;;;52.30;46.20;;;15.60;99.90;;;;;;4824742;29;20426;-92
2023/07/21 06:29:24;;;;;;;58.23;47.77;;;15.80;99.90;;;;;;4824406;29;20186;-92
2023/07/21 06:31:51;;;;;;;50.57;44.43;;;15.80;99.90;;;;;;4824779;29;20811;-92
2023/07/21 06:34:17;;;;;;;56.53;47.47;;;15.80;99.90;;;;;;4823798;29;20434;-92
2023/07/21 06:36:43;;;;;;;55.03;46.97;;;15.90;99.90;;;;;;4824556;29;20413;-92
2023/07/21 06:39:09;;;;;;;52.03;45.60;;;15.90;99.90;;;;;;4824102;29;20452;-92
2023/07/21 06:41:35;;;;;;;51.20;45.03;;;15.90;99.90;;;;;;4823861;29;20190;-89
2023/07/21 06:44:01;;;;;;;49.50;44.10;;;16.00;99.90;;;;;;4823391;29;20588;-84
2023/07/21 06:46:26;;;;;;;48.97;41.73;;;16.00;99.90;;;;;;4824526;29;20400;-84
2023/07/21 06:48:53;;;;;;;47.50;42.50;;;16.20;99.90;;;;;;4824503;29;20190;-84
2023/07/21 06:51:19;;;;;;;44.83;40.03;;;16.40;99.90;;;;;;4822648;29;20703;-83
2023/07/21 06:53:45;;;;;;;44.07;38.60;;;16.50;99.90;;;;;;4825803;29;20423;-83
2023/07/21 06:56:13;;;;;;;42.47;38.27;;;16.70;99.90;;;;;;4826452;29;20575;-81
2023/07/21 06:58:39;;;;;;;39.37;35.33;;;16.80;99.90;;;;;;4827390;29;20443;-81
2023/07/21 07:01:07;;;;;;;39.33;35.23;;;16.90;99.90;;;;;;4827476;29;20430;-90
2023/07/21 07:03:35;;;;;;;37.13;33.27;;;16.90;99.90;;;;;;4827253;29;20417;-94
2023/07/21 07:06:01;;;;;;;37.30;33.30;;;17.00;99.90;;;;;;4813620;29;20756;-91
2023/07/21 07:08:26;;;;;;;36.00;32.40;;;17.00;99.90;;;;;;4826798;29;20426;-94
2023/07/21 07:10:52;;;;;;;35.97;32.10;;;17.00;99.90;;;;;;4826728;29;20213;-93
2023/07/21 07:13:19;;;;;;;33.80;30.20;;;16.90;99.90;;;;;;4823933;29;20598;-94
2023/07/21 07:15:49;;;;;;;33.73;30.60;;;17.10;99.90;;;;;;4794067;29;20186;-95
2023/07/21 07:18:15;;;;;;;34.97;30.40;;;17.30;99.90;;;;;;4793275;29;20457;-96
2023/07/21 07:20:48;;;;;;;32.33;29.27;;;17.40;99.90;;;;;;4778951;29;20410;-95
2023/07/21 07:23:14;;;;;;;32.73;28.30;;;17.40;99.90;;;;;;4810476;29;20189;-95
2023/07/21 07:25:40;;;;;;;28.50;25.80;;;17.30;99.90;;;;;;4809534;29;20386;-94
2023/07/21 07:28:06;;;;;;;30.50;27.40;;;17.40;99.90;;;;;;4777831;29;20221;-95
2023/07/21 07:30:34;;;;;;;31.73;28.70;;;17.40;99.90;;;;;;4808350;29;20193;-94
2023/07/21 07:32:59;;;;;;;31.37;28.43;;;17.50;99.90;;;;;;4808856;29;20417;-94
2023/07/21 07:35:25;;;;;;;28.03;25.40;;;17.60;99.90;;;;;;4792697;29;20448;-93
2023/07/21 07:37:50;;;;;;;28.17;24.90;;;17.80;99.90;;;;;;4809126;29;20305;-95
2023/07/21 07:40:18;;;;;;;28.30;25.17;;;17.90;99.90;;;;;;4792772;29;20202;-92
2023/07/21 07:42:44;;;;;;;29.63;26.83;;;17.90;99.90;;;;;;4792527;29;20198;-92
2023/07/21 07:45:09;;;;;;;32.13;28.73;;;18.00;99.90;;;;;;4795277;29;20911;-92
2023/07/21 07:47:35;;;;;;;29.90;26.97;;;18.10;99.90;;;;;;4809765;29;20247;-95
2023/07/21 07:50:01;;;;;;;28.20;25.47;;;18.10;99.90;;;;;;4809452;29;20190;-94
2023/07/21 07:52:26;;;;;;;27.90;25.10;;;18.00;99.90;;;;;;4809125;29;20606;-94
2023/07/21 07:54:52;;;;;;;25.97;23.37;;;18.30;99.90;;;;;;4809225;29;20187;-94
2023/07/21 07:57:19;;;;;;;25.07;22.70;;;18.50;99.90;;;;;;4808535;29;20272;-95
2023/07/21 07:59:44;;;;;;;27.23;24.37;;;18.70;99.90;;;;;;4793157;29;20682;-93
2023/07/21 08:02:10;;;;;;;24.50;22.07;;;18.90;99.90;;;;;;4793121;29;20463;-94
2023/07/21 08:04:36;;;;;;;23.63;21.53;;;19.10;99.90;;;;;;4792057;29;20186;-94
2023/07/21 08:07:01;;;;;;;20.43;18.57;;;19.10;99.90;;;;;;4792914;29;20198;-96
2023/07/21 08:09:27;;;;;;;20.87;18.97;;;19.00;99.90;;;;;;4808892;29;20272;-93
2023/07/21 08:11:52;;;;;;;21.27;19.40;;;19.20;99.90;;;;;;4793010;29;20190;-93
2023/07/21 08:14:18;;;;;;;18.70;17.00;;;19.10;99.90;;;;;;4778576;29;20214;-93
2023/07/21 08:16:44;;;;;;;20.43;18.53;;;19.00;99.90;;;;;;4808469;29;20186;-93
2023/07/21 08:19:09;;;;;;;18.53;17.00;;;19.40;99.90;;;;;;4808459;29;20270;-85
2023/07/21 08:21:35;;;;;;;19.90;18.20;;;19.50;99.90;;;;;;4807901;29;20736;-86
2023/07/21 08:24:00;;;;;;;17.30;15.80;;;19.60;99.90;;;;;;4807843;29;20301;-86
2023/07/21 08:26:26;;;;;;;18.97;17.10;;;19.60;99.90;;;;;;4790906;29;20313;-86
2023/07/21 08:28:52;;;;;;;17.87;16.17;;;19.80;99.90;;;;;;4807293;29;20281;-85
2023/07/21 08:31:19;;;;;;;17.00;15.50;;;20.30;99.90;;;;;;4791188;29;20314;-85
2023/07/21 08:33:44;;;;;;;17.43;15.77;;;20.10;99.90;;;;;;4807243;29;20836;-84
2023/07/21 08:36:10;;;;;;;17.10;15.60;;;20.10;99.90;;;;;;4808104;29;20416;-84
2023/07/21 08:38:36;;;;;;;15.93;14.20;;;20.00;99.90;;;;;;4806739;29;20314;-83
2023/07/21 08:41:07;;;;;;;15.57;14.10;;;19.90;99.90;;;;;;4807445;29;20552;-84
2023/07/21 08:43:33;;;;;;;17.83;16.23;;;20.10;99.90;;;;;;4806894;29;20198;-84
2023/07/21 08:46:00;;;;;;;17.10;15.70;;;20.20;99.90;;;;;;4807722;29;20430;-84
2023/07/21 08:48:27;;;;;;;16.53;15.03;;;20.00;99.90;;;;;;4790567;29;20190;-84
2023/07/21 08:50:57;;;;;;;15.93;14.53;;;20.10;99.90;;;;;;4807157;29;20390;-84
2023/07/21 08:53:26;;;;;;;17.10;15.60;;;20.10;99.90;;;;;;4807064;29;20420;-84
2023/07/21 08:55:56;;;;;;;17.00;14.13;;;20.10;99.90;;;;;;4806668;29;20383;-84
2023/07/21 08:58:22;;;;;;;17.90;16.30;;;20.10;99.90;;;;;;4807184;29;20450;-84
2023/07/21 09:00:50;;;;;;;17.40;15.57;;;20.10;99.90;;;;;;4790617;29;20937;-83
2023/07/21 09:03:23;;;;;;;17.10;15.53;;;20.20;99.90;;;;;;4790865;29;20402;-83
2023/07/21 09:05:50;;;;;;;16.20;14.50;;;20.30;99.90;;;;;;4807079;29;20428;-83
2023/07/21 09:08:22;;;;;;;16.93;15.50;;;20.40;99.90;;;;;;4806747;29;20399;-82
2023/07/21 09:10:47;;;;;;;14.53;13.17;;;20.70;99.90;;;;;;4806668;29;20440;-87
2023/07/21 09:13:18;;;;;;;15.83;13.43;;;21.10;99.90;;;;;;4775785;29;20450;-85
2023/07/21 09:15:51;;;;;;;15.20;13.90;;;21.60;99.90;;;;;;4790058;29;20747;-85
2023/07/21 09:18:17;;;;;;;15.97;14.57;;;21.30;99.90;;;;;;4806280;29;20463;-85
2023/07/21 09:20:46;;;;;;;12.77;11.63;;;21.70;99.90;;;;;;4775067;29;20971;-86
2023/07/21 09:23:11;;;;;;;15.20;13.90;;;22.00;99.90;;;;;;4789968;29;20190;-87
2023/07/21 09:25:51;;;;;;;15.07;13.43;;;22.20;99.90;;;;;;4806179;29;20850;-85
2023/07/21 09:28:17;;;;;;;14.30;12.53;;;21.80;99.90;;;;;;4806300;29;20210;-86
2023/07/21 09:30:52;;;;;;;15.80;14.30;;;22.20;99.90;;;;;;4805773;29;20462;-86
2023/07/21 09:33:23;;;;;;;12.30;11.10;;;21.70;99.90;;;;;;4760699;29;20414;-85
2023/07/21 09:35:49;;;;;;;10.50;9.43;;;21.60;99.90;;;;;;4806206;29;20442;-85
2023/07/21 09:38:15;;;;;;;10.50;9.70;;;22.00;99.90;;;;;;4790018;29;20534;-85
2023/07/21 09:40:44;;;;;;;11.27;10.27;;;22.10;99.90;;;;;;4790130;29;20475;-85
2023/07/21 09:43:10;;;;;;;11.90;10.90;;;22.10;99.90;;;;;;4806385;29;20431;-88
2023/07/21 09:45:41;;;;;;;12.37;11.10;;;22.20;99.90;;;;;;4806095;29;20428;-85
2023/07/21 09:48:06;;;;;;;12.50;11.53;;;21.90;99.90;;;;;;4806085;29;20420;-83
2023/07/21 09:50:34;;;;;;;9.40;8.50;;;21.70;99.90;;;;;;4806627;29;20581;-83
2023/07/21 09:53:01;;;;;;;9.37;8.47;;;21.40;99.90;;;;;;4776057;29;20202;-81
2023/07/21 09:55:34;;;;;;;11.30;10.40;;;21.80;99.90;;;;;;4821162;29;20435;-85
2023/07/21 09:58:04;;;;;;;11.83;9.80;;;22.30;99.90;;;;;;4823717;29;20426;-83
2023/07/21 10:00:33;;;;;;;9.97;8.97;;;22.00;99.90;;;;;;4823634;29;20435;-84
2023/07/21 10:03:00;;;;;;;9.40;8.50;;;21.80;99.90;;;;;;4823306;29;20499;-83
2023/07/21 10:05:26;;;;;;;8.90;8.00;;;22.30;99.90;;;;;;4825035;29;20463;-83
2023/07/21 10:07:53;;;;;;;11.77;10.63;;;22.60;99.90;;;;;;4824581;29;20968;-84
2023/07/21 10:10:19;;;;;;;9.97;8.97;;;22.50;99.90;;;;;;4824778;29;20201;-83
2023/07/21 10:12:51;;;;;;;8.00;7.30;;;22.70;99.90;;;;;;4824495;29;20431;-83
2023/07/21 10:15:19;;;;;;;8.20;7.60;;;23.20;99.90;;;;;;4823258;29;20435;-83
2023/07/21 10:18:06;;;;;;;9.90;8.70;;;23.10;99.90;;;;;;4824367;29;20418;-84
2023/07/21 10:20:44;;;;;;;8.70;7.83;;;22.90;99.90;;;;;;4824438;29;20478;-83
2023/07/21 10:23:11;;;;;;;9.33;8.57;;;22.60;99.90;;;;;;4824461;29;20422;-83
2023/07/21 10:26:04;;;;;;;9.47;8.03;;;22.60;99.90;;;;;;4823969;29;20429;-83
2023/07/21 10:28:30;;;;;;;10.03;8.67;;;22.80;99.90;;;;;;4822541;29;20465;-84
2023/07/21 10:31:24;;;;;;;8.73;7.57;;;22.20;99.90;;;;;;4827516;29;20481;-83
2023/07/21 10:34:10;;;;;;;7.10;6.50;;;22.60;99.90;;;;;;4827259;29;20200;-83
2023/07/21 10:36:39;;;;;;;8.60;6.73;;;22.90;99.90;;;;;;4827675;29;20427;-83
2023/07/21 10:39:14;;;;;;;8.20;7.40;;;22.80;99.90;;;;;;4827564;29;20477;-83
2023/07/21 10:41:40;;;;;;;8.67;7.77;;;22.40;99.90;;;;;;4825980;29;20469;-83
2023/07/21 10:44:11;;;;;;;8.60;7.30;;;22.00;99.90;;;;;;4827203;29;20442;-83
2023/07/21 10:46:38;;;;;;;8.30;7.60;;;21.90;99.90;;;;;;4827371;29;20394;-84
2023/07/21 10:49:04;;;;;;;8.70;7.50;;;21.80;99.90;;;;;;4827545;29;20435;-83
2023/07/21 10:51:30;;;;;;;8.37;7.57;;;21.90;99.90;;;;;;4827449;29;20409;-86
2023/07/21 10:53:56;;;;;;;7.60;6.83;;;22.10;99.90;;;;;;4827644;29;20193;-83
2023/07/21 10:56:22;;;;;;;7.47;6.87;;;22.20;99.90;;;;;;4827391;29;20393;-83
2023/07/21 10:58:49;;;;;;;7.07;6.47;;;22.40;99.90;;;;;;4826902;29;20751;-83
2023/07/21 11:01:21;;;;;;;7.33;6.63;;;22.20;99.90;;;;;;4827537;29;20466;-83
2023/07/21 11:03:48;;;;;;;6.70;6.10;;;22.10;99.90;;;;;;4826973;29;20409;-82
2023/07/21 11:06:14;;;;;;;6.90;6.20;;;21.80;99.90;;;;;;4827557;29;20522;-82
2023/07/21 11:08:39;;;;;;;7.07;6.37;;;21.80;99.90;;;;;;4827159;29;20454;-83
2023/07/21 11:11:06;;;;;;;6.87;6.20;;;21.90;99.90;;;;;;4827526;29;20778;-82
2023/07/21 11:13:32;;;;;;;4.87;4.47;;;22.00;99.90;;;;;;4826914;29;20280;-85
2023/07/21 11:16:00;;;;;;;7.77;4.33;;;22.00;99.90;;;;;;4827113;29;20849;-83
2023/07/21 11:18:30;;;;;;;6.10;4.70;;;21.90;99.90;;;;;;4827689;29;20828;-83
2023/07/21 11:20:55;;;;;;;6.20;5.70;;;21.90;99.90;;;;;;4827190;29;20484;-83
2023/07/21 11:23:26;;;;;;;6.20;4.73;;;21.90;99.90;;;;;;4827180;29;20938;-83
2023/07/21 11:26:09;;;;;;;7.67;4.50;;;21.90;99.90;;;;;;4825318;29;20867;-83
2023/07/21 11:28:37;;;;;;;5.03;4.33;;;22.10;99.90;;;;;;4826971;29;20426;-82
2023/07/21 11:31:09;;;;;;;5.00;3.40;;;22.10;99.90;;;;;;4826984;29;20470;-82
2023/07/21 11:33:44;;;;;;;5.10;4.07;;;21.90;99.90;;;;;;4826506;29;20444;-83
2023/07/21 11:36:22;;;;;;;7.13;2.90;;;21.90;99.90;;;;;;4825607;29;20498;-85
2023/07/21 11:39:03;;;;;;;3.80;3.50;;;22.10;99.90;;;;;;4825842;29;20458;-85
2023/07/21 11:41:39;;;;;;;4.97;4.57;;;21.90;99.90;;;;;;4826145;29;20426;-84
2023/07/21 11:44:08;;;;;;;5.03;4.00;;;21.90;99.90;;;;;;4826118;29;20410;-87
2023/07/21 11:46:34;;;;;;;4.50;3.07;;;22.00;99.90;;;;;;4825884;29;20967;-86
2023/07/21 11:52:24;;;;;;;6.23;3.40;;;22.20;99.90;;;;;;4829852;29;20172;-88
2023/07/21 11:54:50;;;;;;;5.53;4.43;;;22.40;99.90;;;;;;4828405;29;20861;-85
2023/07/21 11:57:17;;;;;;;7.53;4.23;;;23.00;99.90;;;;;;4826456;29;20449;-88
2023/07/21 11:59:42;;;;;;;3.70;3.30;;;23.70;99.90;;;;;;4826335;29;20522;-87
2023/07/21 12:02:08;;;;;;;3.53;3.23;;;24.10;99.90;;;;;;4825210;29;20922;-88
2023/07/21 12:04:35;;;;;;;6.27;2.90;;;24.30;99.90;;;;;;4826249;29;20216;-87
2023/07/21 12:07:01;;;;;;;3.80;3.40;;;24.30;99.90;;;;;;4826294;29;20559;-85
2023/07/21 12:09:28;;;;;;;4.50;2.80;;;24.50;99.90;;;;;;4826232;29;20479;-85
2023/07/21 12:11:55;;;;;;;3.83;3.37;;;24.70;99.90;;;;;;4824786;29;20431;-87
2023/07/21 12:14:21;;;;;;;4.90;2.43;;;24.40;99.90;;;;;;4826623;29;21008;-85
2023/07/21 12:16:46;;;;;;;6.10;2.20;;;23.80;99.90;;;;;;4826068;29;20416;-86
2023/07/21 12:19:13;;;;;;;3.80;2.50;;;23.50;99.90;;;;;;4825929;29;20542;-84
2023/07/21 12:21:40;;;;;;;3.47;2.13;;;23.40;99.90;;;;;;4825592;29;20201;-85
2023/07/21 12:24:06;;;;;;;2.67;2.10;;;24.10;99.90;;;;;;4824404;29;20995;-85
2023/07/21 12:26:32;;;;;;;3.93;2.03;;;24.60;99.90;;;;;;4825692;29;20505;-84
2023/07/21 12:28:58;;;;;;;3.60;2.10;;;24.60;99.90;;;;;;4825706;29;20292;-82
2023/07/21 12:31:23;;;;;;;2.60;2.40;;;25.00;99.90;;;;;;4826211;29;20880;-83
2023/07/21 12:33:49;;;;;;;3.70;2.70;;;25.20;99.90;;;;;;4825458;29;20666;-82